createdAt,value
2018-07-02T00:00:37.888Z,51.09
2018-07-02T00:03:07.549Z,50.26
2018-07-02T00:05:53.985Z,50.57
2018-07-02T00:08:23.620Z,51.00
2018-07-02T00:10:53.443Z,49.72
2018-07-02T00:13:23.002Z,50.78
2018-07-02T00:15:52.692Z,50.50
2018-07-02T00:18:22.288Z,51.68
2018-07-02T00:20:51.932Z,50.70
2018-07-02T00:23:21.635Z,51.24
2018-07-02T00:25:51.288Z,50.93
2018-07-02T00:28:20.945Z,52.18
2018-07-02T00:30:50.596Z,52.20
2018-07-02T00:33:20.207Z,53.32
2018-07-02T00:35:49.882Z,52.79
2018-07-02T00:38:19.592Z,52.59
2018-07-02T00:40:49.195Z,52.34
2018-07-02T00:43:18.801Z,52.63
2018-07-02T00:45:48.444Z,53.34
2018-07-02T00:48:18.366Z,52.93
2018-07-02T00:50:48.009Z,53.28
2018-07-02T00:53:17.951Z,53.47
2018-07-02T00:55:47.568Z,52.92
2018-07-02T00:58:17.180Z,53.33
2018-07-02T01:00:47.017Z,53.14
2018-07-02T01:03:16.738Z,53.38
2018-07-02T01:05:46.477Z,54.94
2018-07-02T01:08:16.156Z,54.90
2018-07-02T01:10:45.880Z,55.27
2018-07-02T01:13:15.568Z,54.82
2018-07-02T01:15:45.202Z,56.11
2018-07-02T01:18:14.798Z,56.34
2018-07-02T01:20:44.476Z,56.05
2018-07-02T01:23:14.706Z,56.11
2018-07-02T01:25:44.325Z,55.71
2018-07-02T01:28:14.681Z,56.34
2018-07-02T01:30:44.347Z,57.06
2018-07-02T01:33:13.952Z,56.50
2018-07-02T01:35:44.298Z,56.78
2018-07-02T01:38:13.885Z,57.46
2018-07-02T01:40:43.493Z,57.95
2018-07-02T01:43:13.108Z,56.99
2018-07-02T01:45:42.686Z,56.87
2018-07-02T01:48:12.215Z,57.95
2018-07-02T01:50:41.825Z,56.98
2018-07-02T01:53:11.521Z,56.73
2018-07-02T01:55:41.115Z,57.78
2018-07-02T01:58:11.140Z,57.29
2018-07-02T02:00:40.800Z,56.97
2018-07-02T02:03:10.431Z,57.21
2018-07-02T02:05:40.077Z,57.41
2018-07-02T02:08:09.719Z,57.41
2018-07-02T02:10:39.436Z,57.81
2018-07-02T02:13:09.086Z,57.45
2018-07-02T02:15:38.731Z,57.62
2018-07-02T02:18:08.362Z,58.68
2018-07-02T02:20:38.042Z,58.57
2018-07-02T02:23:07.584Z,58.45
2018-07-02T02:25:37.252Z,57.72
2018-07-02T02:28:07.019Z,57.73
2018-07-02T02:30:37.336Z,58.56
2018-07-02T02:33:06.998Z,57.70
2018-07-02T02:35:36.646Z,58.64
2018-07-02T02:38:06.508Z,57.99
2018-07-02T02:40:36.128Z,58.91
2018-07-02T02:43:05.731Z,57.71
2018-07-02T02:45:35.321Z,58.45
2018-07-02T02:48:05.650Z,58.51
2018-07-02T02:50:35.773Z,58.23
2018-07-02T02:53:05.384Z,58.78
2018-07-02T02:55:34.985Z,58.86
2018-07-02T02:58:05.029Z,59.27
2018-07-02T03:00:34.772Z,59.26
2018-07-02T03:03:05.122Z,59.62
2018-07-02T03:05:34.747Z,59.38
2018-07-02T03:08:04.683Z,59.40
2018-07-02T03:10:34.629Z,58.74
2018-07-02T03:13:04.223Z,59.67
2018-07-02T03:15:33.862Z,59.26
2018-07-02T03:18:03.484Z,58.63
2018-07-02T03:20:33.336Z,59.08
2018-07-02T03:23:03.139Z,59.15
2018-07-02T03:25:32.877Z,58.88
2018-07-02T03:28:02.530Z,59.39
2018-07-02T03:30:32.164Z,59.43
2018-07-02T03:33:02.226Z,58.97
2018-07-02T03:35:32.136Z,59.10
2018-07-02T03:38:01.728Z,59.80
2018-07-02T03:40:32.019Z,59.57
2018-07-02T03:43:01.738Z,58.50
2018-07-02T03:45:31.321Z,58.88
2018-07-02T03:48:01.073Z,58.80
2018-07-02T03:50:31.489Z,58.00
2018-07-02T03:53:01.148Z,58.23
2018-07-02T03:55:30.690Z,57.12
2018-07-02T03:58:00.532Z,54.88
2018-07-02T04:00:30.145Z,44.46
2018-07-02T04:02:59.714Z,39.29
2018-07-02T04:05:29.340Z,37.57
2018-07-02T04:07:58.917Z,39.17
2018-07-02T04:10:28.550Z,36.39
2018-07-02T04:12:58.257Z,37.59
2018-07-02T04:15:27.979Z,33.75
2018-07-02T04:17:57.538Z,29.80
2018-07-02T04:20:27.372Z,32.25
2018-07-02T04:22:56.936Z,30.44
2018-07-02T04:25:26.734Z,30.18
2018-07-02T04:27:55.996Z,29.71
2018-07-02T04:30:25.781Z,26.70
2018-07-02T04:32:55.395Z,29.47
2018-07-02T04:35:25.111Z,25.85
2018-07-02T04:37:54.926Z,24.84
2018-07-02T04:40:24.631Z,24.08
2018-07-02T04:42:54.335Z,24.75
2018-07-02T04:45:24.504Z,25.05
2018-07-02T04:47:54.193Z,25.77
2018-07-02T04:50:24.596Z,27.34
2018-07-02T04:52:54.431Z,27.32
2018-07-02T04:55:24.076Z,24.37
2018-07-02T04:57:54.480Z,25.46
2018-07-02T05:00:24.116Z,24.09
2018-07-02T05:02:54.300Z,22.99
2018-07-02T05:05:24.721Z,23.36
2018-07-02T05:07:55.133Z,25.73
2018-07-02T05:10:24.808Z,24.74
2018-07-02T05:12:54.622Z,23.76
2018-07-02T05:15:24.192Z,22.44
2018-07-02T05:17:53.838Z,23.60
2018-07-02T05:20:23.168Z,20.64
2018-07-02T05:22:52.816Z,23.28
2018-07-02T05:25:22.505Z,20.97
2018-07-02T05:27:52.198Z,22.04
2018-07-02T05:30:21.848Z,21.08
2018-07-02T05:32:52.106Z,21.47
2018-07-02T05:35:22.506Z,22.30
2018-07-02T05:37:52.137Z,19.70
2018-07-02T05:40:21.792Z,20.46
2018-07-02T05:42:51.454Z,22.75
2018-07-02T05:45:21.333Z,19.73
2018-07-02T05:47:50.947Z,19.12
2018-07-02T05:50:20.719Z,19.32
2018-07-02T05:52:51.145Z,22.45
2018-07-02T05:55:20.754Z,24.20
2018-07-02T05:57:50.295Z,18.84
2018-07-02T06:00:20.100Z,19.10
2018-07-02T06:02:49.551Z,21.23
2018-07-02T06:05:19.146Z,20.35
2018-07-02T06:07:49.660Z,19.96
2018-07-02T06:10:19.087Z,23.65
2018-07-02T06:13:00.688Z,24.31
2018-07-02T06:15:31.381Z,23.16
2018-07-02T06:18:01.678Z,22.13
2018-07-02T06:20:31.344Z,22.63
2018-07-02T06:23:01.015Z,22.08
2018-07-02T06:25:30.659Z,21.75
2018-07-02T06:28:00.279Z,23.85
2018-07-02T06:30:30.049Z,22.11
2018-07-02T06:32:59.825Z,23.75
2018-07-02T06:35:32.437Z,25.00
2018-07-02T06:38:02.138Z,21.47
2018-07-02T06:40:32.960Z,22.13
2018-07-02T06:43:02.580Z,21.70
2018-07-02T06:45:32.190Z,21.31
2018-07-02T06:48:02.009Z,20.99
2018-07-02T06:50:31.804Z,20.05
2018-07-02T06:53:01.432Z,21.65
2018-07-02T06:55:31.076Z,23.30
2018-07-02T06:58:00.970Z,23.70
2018-07-02T07:00:30.630Z,22.77
2018-07-02T07:03:00.307Z,25.23
2018-07-02T07:05:30.001Z,25.71
2018-07-02T07:07:59.747Z,22.40
2018-07-02T07:10:29.304Z,23.59
2018-07-02T07:12:59.120Z,23.38
2018-07-02T07:15:28.880Z,23.64
2018-07-02T07:17:58.535Z,23.89
2018-07-02T07:20:28.240Z,23.81
2018-07-02T07:22:57.845Z,24.18
2018-07-02T07:25:27.437Z,24.50
2018-07-02T07:27:57.672Z,24.37
2018-07-02T07:30:27.332Z,25.96
2018-07-02T07:32:56.951Z,27.01
2018-07-02T07:35:26.710Z,25.61
2018-07-02T07:37:56.448Z,25.33
2018-07-02T07:40:26.174Z,25.13
2018-07-02T07:42:55.909Z,25.22
2018-07-02T07:45:25.549Z,24.49
2018-07-02T07:47:55.162Z,25.67
2018-07-02T07:50:24.823Z,26.73
2018-07-02T07:52:54.944Z,23.42
2018-07-02T07:55:24.595Z,22.03
2018-07-02T07:57:54.260Z,24.42
2018-07-02T08:00:23.973Z,22.33
2018-07-02T08:02:53.740Z,25.66
2018-07-02T08:05:23.543Z,24.19
2018-07-02T08:07:53.520Z,27.50
2018-07-02T08:10:23.325Z,24.39
2018-07-02T08:12:53.123Z,27.08
2018-07-02T08:15:22.707Z,25.05
2018-07-02T08:17:52.489Z,26.19
2018-07-02T08:20:22.504Z,24.88
2018-07-02T08:22:56.360Z,26.07
2018-07-02T08:25:26.156Z,24.41
2018-07-02T08:27:55.940Z,25.06
2018-07-02T08:30:25.568Z,24.13
2018-07-02T08:32:55.261Z,24.01
2018-07-02T08:35:25.130Z,23.76
2018-07-02T08:37:55.013Z,25.48
2018-07-02T08:40:24.640Z,22.86
2018-07-02T08:42:54.431Z,23.97
2018-07-02T08:45:24.238Z,23.90
2018-07-02T08:47:53.963Z,22.94
2018-07-02T08:50:23.551Z,23.33
2018-07-02T08:52:53.211Z,23.53
2018-07-02T08:55:22.864Z,25.62
2018-07-02T08:57:52.503Z,24.52
2018-07-02T09:00:22.180Z,26.31
2018-07-02T09:02:51.886Z,26.51
2018-07-02T09:05:21.703Z,26.02
2018-07-02T09:07:51.327Z,24.89
2018-07-02T09:10:20.983Z,22.57
2018-07-02T09:12:50.748Z,26.14
2018-07-02T09:15:20.736Z,24.35
2018-07-02T09:17:50.398Z,25.05
2018-07-02T09:20:20.033Z,26.00
2018-07-02T09:22:49.776Z,27.12
2018-07-02T09:25:19.538Z,26.24
2018-07-02T09:27:49.977Z,22.63
2018-07-02T09:30:19.645Z,23.54
2018-07-02T09:32:49.718Z,26.13
2018-07-02T09:35:19.417Z,25.38
2018-07-02T09:37:49.046Z,28.73
2018-07-02T09:40:18.677Z,25.55
2018-07-02T09:42:48.367Z,26.42
2018-07-02T09:45:17.987Z,25.48
2018-07-02T09:47:47.849Z,28.05
2018-07-02T09:50:17.601Z,26.29
2018-07-02T09:52:48.137Z,26.10
2018-07-02T09:55:20.801Z,28.14
2018-07-02T09:57:50.452Z,28.78
2018-07-02T10:00:20.133Z,29.96
2018-07-02T10:02:49.876Z,28.20
2018-07-02T10:05:19.518Z,30.27
2018-07-02T10:07:49.239Z,29.65
2018-07-02T10:10:18.860Z,27.96
2018-07-02T10:12:48.535Z,26.71
2018-07-02T10:15:18.156Z,28.74
2018-07-02T10:17:48.196Z,28.87
2018-07-02T10:20:17.887Z,29.53
2018-07-02T10:22:47.541Z,28.40
2018-07-02T10:25:17.428Z,27.59
2018-07-02T10:27:47.204Z,26.18
2018-07-02T10:30:16.824Z,26.87
2018-07-02T10:32:46.476Z,27.38
2018-07-02T10:35:16.725Z,28.47
2018-07-02T10:37:46.427Z,26.51
2018-07-02T10:40:16.308Z,27.71
2018-07-02T10:42:45.951Z,27.16
2018-07-02T10:45:16.541Z,28.58
2018-07-02T10:47:46.267Z,27.01
2018-07-02T10:50:16.412Z,27.64
2018-07-02T10:52:46.037Z,28.94
2018-07-02T10:55:16.399Z,26.60
2018-07-02T10:57:46.251Z,26.48
2018-07-02T11:00:16.600Z,26.02
2018-07-02T11:02:46.329Z,28.73
2018-07-02T11:05:16.481Z,29.66
2018-07-02T11:07:46.372Z,27.63
2018-07-02T11:10:16.478Z,27.06
2018-07-02T11:12:46.224Z,28.62
2018-07-02T11:15:16.343Z,28.46
2018-07-02T11:17:46.112Z,29.29
2018-07-02T11:20:16.074Z,30.95
2018-07-02T11:22:45.743Z,29.70
2018-07-02T11:25:15.533Z,31.22
2018-07-02T11:27:45.239Z,30.12
2018-07-02T11:30:15.068Z,30.95
2018-07-02T11:32:44.695Z,30.95
2018-07-02T11:35:14.593Z,31.31
2018-07-02T11:37:44.987Z,31.74
2018-07-02T11:40:14.729Z,29.23
2018-07-02T11:42:45.241Z,29.48
2018-07-02T11:45:14.840Z,28.79
2018-07-02T11:47:44.616Z,28.73
2018-07-02T11:50:14.300Z,28.95
2018-07-02T11:52:44.198Z,31.08
2018-07-02T11:55:13.993Z,30.18
2018-07-02T11:57:43.658Z,28.99
2018-07-02T12:00:13.308Z,29.95
2018-07-02T12:02:42.926Z,30.26
2018-07-02T12:05:12.668Z,29.76
2018-07-02T12:07:42.408Z,30.43
2018-07-02T12:10:12.382Z,29.76
2018-07-02T12:12:42.386Z,29.65
2018-07-02T12:15:12.021Z,30.12
2018-07-02T12:17:41.833Z,29.49
2018-07-02T12:20:12.221Z,29.24
2018-07-02T12:22:42.678Z,30.45
2018-07-02T12:25:12.365Z,30.63
2018-07-02T12:27:42.586Z,28.97
2018-07-02T12:30:12.258Z,28.42
2018-07-02T12:32:41.844Z,28.51
2018-07-02T12:35:11.473Z,28.51
2018-07-02T12:37:41.136Z,28.88
2018-07-02T12:40:10.853Z,28.61
2018-07-02T12:42:40.599Z,27.61
2018-07-02T12:45:10.388Z,28.41
2018-07-02T12:47:40.578Z,28.54
2018-07-02T12:50:10.240Z,28.48
2018-07-02T12:52:39.872Z,28.18
2018-07-02T12:55:09.624Z,28.53
2018-07-02T12:57:39.554Z,29.87
2018-07-02T13:00:09.304Z,29.02
2018-07-02T13:02:39.086Z,28.44
2018-07-02T13:05:10.158Z,28.23
2018-07-02T13:07:40.304Z,29.03
2018-07-02T13:10:10.226Z,28.27
2018-07-02T13:12:39.950Z,28.03
2018-07-02T13:15:09.696Z,26.92
2018-07-02T13:17:39.440Z,25.90
2018-07-02T13:20:09.396Z,26.06
2018-07-02T13:22:39.154Z,26.68
2018-07-02T13:25:08.935Z,26.40
2018-07-02T13:27:38.545Z,26.05
2018-07-02T13:30:08.634Z,25.35
2018-07-02T13:32:38.120Z,24.74
2018-07-02T13:35:07.763Z,25.29
2018-07-02T13:37:38.592Z,25.61
2018-07-02T13:40:08.277Z,24.73
2018-07-02T13:42:38.070Z,25.20
2018-07-02T13:45:07.816Z,24.72
2018-07-02T13:47:37.581Z,24.33
2018-07-02T13:50:07.447Z,23.61
2018-07-02T13:52:37.202Z,23.91
2018-07-02T13:55:07.230Z,24.76
2018-07-02T13:57:36.646Z,23.96
2018-07-02T14:00:07.285Z,24.28
2018-07-02T14:02:36.931Z,22.84
2018-07-02T14:05:06.544Z,23.10
2018-07-02T14:07:37.008Z,22.74
2018-07-02T14:10:06.873Z,23.24
2018-07-02T14:12:36.528Z,22.03
2018-07-02T14:15:08.393Z,22.10
2018-07-02T14:17:38.305Z,22.32
2018-07-02T14:20:08.068Z,22.35
2018-07-02T14:22:38.348Z,22.21
2018-07-02T14:25:08.488Z,22.10
2018-07-02T14:27:38.403Z,22.60
2018-07-02T14:30:08.496Z,21.82
2018-07-02T14:32:38.169Z,21.31
2018-07-02T14:35:08.013Z,20.34
2018-07-02T14:37:37.692Z,20.44
2018-07-02T14:40:07.546Z,21.32
2018-07-02T14:42:37.211Z,20.25
2018-07-02T14:45:07.137Z,20.77
2018-07-02T14:47:36.872Z,20.79
2018-07-02T14:50:06.585Z,19.99
2018-07-02T14:52:36.704Z,20.00
2018-07-02T14:55:06.715Z,19.92
2018-07-02T14:57:36.864Z,20.18
2018-07-02T15:00:07.479Z,19.27
2018-07-02T15:02:37.519Z,20.38
2018-07-02T15:05:07.855Z,19.54
2018-07-02T15:07:37.893Z,19.96
2018-07-02T15:10:07.537Z,20.04
2018-07-02T15:12:38.323Z,19.45
2018-07-02T15:15:10.969Z,20.09
2018-07-02T15:17:40.658Z,20.15
2018-07-02T15:20:11.067Z,20.10
2018-07-02T15:22:40.804Z,20.54
2018-07-02T15:25:10.592Z,20.38
2018-07-02T15:27:40.336Z,20.74
2018-07-02T15:30:10.759Z,20.44
2018-07-02T15:32:40.639Z,20.72
2018-07-02T15:35:10.371Z,20.86
2018-07-02T15:37:41.328Z,20.13
2018-07-02T15:40:11.672Z,21.07
2018-07-02T15:42:41.512Z,20.71
2018-07-02T15:45:11.083Z,21.00
2018-07-02T15:47:41.102Z,20.72
2018-07-02T15:50:10.753Z,21.77
2018-07-02T15:52:40.871Z,22.56
2018-07-02T15:55:10.656Z,22.52
2018-07-02T15:57:40.901Z,21.49
2018-07-02T16:00:10.573Z,21.94
2018-07-02T16:02:40.726Z,21.64
2018-07-02T16:05:09.944Z,21.40
2018-07-02T16:07:39.977Z,22.17
2018-07-02T16:10:09.730Z,21.89
2018-07-02T16:12:40.288Z,21.21
2018-07-02T16:15:14.418Z,21.77
2018-07-02T16:17:44.369Z,22.23
2018-07-02T16:20:14.058Z,21.62
2018-07-02T16:22:44.245Z,21.28
2018-07-02T16:25:14.100Z,22.11
2018-07-02T16:27:44.366Z,21.51
2018-07-02T16:30:14.624Z,22.00
2018-07-02T16:32:44.753Z,21.21
2018-07-02T16:35:14.693Z,21.60
2018-07-02T16:37:44.781Z,21.75
2018-07-02T16:40:14.438Z,22.29
2018-07-02T16:42:44.609Z,21.84
2018-07-02T16:45:14.243Z,21.29
2018-07-02T16:47:44.353Z,22.51
2018-07-02T16:50:14.069Z,22.18
2018-07-02T16:52:44.239Z,22.39
2018-07-02T16:55:13.918Z,21.82
2018-07-02T16:57:43.912Z,22.13
2018-07-02T17:00:13.737Z,22.77
2018-07-02T17:02:44.271Z,22.57
2018-07-02T17:05:14.196Z,22.72
2018-07-02T17:07:44.667Z,22.38
2018-07-02T17:10:14.609Z,21.97
2018-07-02T17:12:44.824Z,22.24
2018-07-02T17:15:14.592Z,22.07
2018-07-02T17:17:44.510Z,22.39
2018-07-02T17:20:14.404Z,22.44
2018-07-02T17:22:44.190Z,22.51
2018-07-02T17:25:13.896Z,23.20
2018-07-02T17:27:43.583Z,23.46
2018-07-02T17:30:13.267Z,24.17
2018-07-02T17:32:42.932Z,23.50
2018-07-02T17:35:13.485Z,24.17
2018-07-02T17:37:43.134Z,23.82
2018-07-02T17:40:12.880Z,23.87
2018-07-02T17:42:42.619Z,24.04
2018-07-02T17:45:12.493Z,24.28
2018-07-02T17:47:42.362Z,24.19
2018-07-02T17:50:12.052Z,24.04
2018-07-02T17:52:41.774Z,23.64
2018-07-02T17:55:11.609Z,23.36
2018-07-02T17:57:41.277Z,24.05
2018-07-02T18:00:11.114Z,23.62
2018-07-02T18:02:40.880Z,24.05
2018-07-02T18:05:10.638Z,24.30
2018-07-02T18:07:40.618Z,24.20
2018-07-02T18:10:10.544Z,24.77
2018-07-02T18:12:40.380Z,24.38
2018-07-02T18:15:10.214Z,25.12
2018-07-02T18:17:39.977Z,24.71
2018-07-02T18:20:09.678Z,25.15
2018-07-02T18:22:39.457Z,24.63
2018-07-02T18:25:09.255Z,24.92
2018-07-02T18:27:39.103Z,25.38
2018-07-02T18:30:08.850Z,25.20
2018-07-02T18:32:38.654Z,25.14
2018-07-02T18:35:08.412Z,25.90
2018-07-02T18:37:38.468Z,26.47
2018-07-02T18:40:09.032Z,26.62
2018-07-02T18:42:38.999Z,27.05
2018-07-02T18:45:08.781Z,26.69
2018-07-02T18:47:38.727Z,27.71
2018-07-02T18:50:08.787Z,27.06
2018-07-02T18:52:38.686Z,28.05
2018-07-02T18:55:08.579Z,27.96
2018-07-02T18:57:38.522Z,28.52
2018-07-02T19:00:08.588Z,27.91
2018-07-02T19:02:38.458Z,28.09
2018-07-02T19:05:08.325Z,28.62
2018-07-02T19:07:38.231Z,28.83
2018-07-02T19:10:09.425Z,29.23
2018-07-02T19:12:39.342Z,28.54
2018-07-02T19:15:09.770Z,29.13
2018-07-02T19:17:39.585Z,29.67
2018-07-02T19:20:09.707Z,29.78
2018-07-02T19:22:39.754Z,30.15
2018-07-02T19:25:10.061Z,30.22
2018-07-02T19:27:39.916Z,30.82
2018-07-02T19:30:09.872Z,30.37
2018-07-02T19:32:39.815Z,31.37
2018-07-02T19:35:09.679Z,31.06
2018-07-02T19:37:39.522Z,31.59
2018-07-02T19:40:09.280Z,31.52
2018-07-02T19:42:39.461Z,31.58
2018-07-02T19:45:09.264Z,32.05
2018-07-02T19:47:39.015Z,32.20
2018-07-02T19:50:09.000Z,33.21
2018-07-02T19:52:38.772Z,33.03
2018-07-02T19:55:08.773Z,32.77
2018-07-02T19:57:38.537Z,32.78
2018-07-02T20:00:08.316Z,33.06
2018-07-02T20:02:38.263Z,33.98
2018-07-02T20:05:08.188Z,33.64
2018-07-02T20:07:37.981Z,34.09
2018-07-02T20:10:07.914Z,34.52
2018-07-02T20:12:37.722Z,33.85
2018-07-02T20:15:07.724Z,34.85
2018-07-02T20:17:37.669Z,35.24
2018-07-02T20:20:11.320Z,34.70
2018-07-02T20:22:41.421Z,35.48
2018-07-02T20:25:11.196Z,35.85
2018-07-02T20:27:40.949Z,36.14
2018-07-02T20:30:11.318Z,36.08
2018-07-02T20:32:41.300Z,35.90
2018-07-02T20:35:11.064Z,36.38
2018-07-02T20:37:40.856Z,37.79
2018-07-02T20:40:10.777Z,37.02
2018-07-02T20:42:40.493Z,37.54
2018-07-02T20:45:10.911Z,38.61
2018-07-02T20:47:40.758Z,39.64
2018-07-02T20:50:11.618Z,39.90
2018-07-02T20:52:41.481Z,40.39
2018-07-02T20:55:11.328Z,40.50
2018-07-02T20:57:41.061Z,41.33
2018-07-02T21:00:11.049Z,41.88
2018-07-02T21:02:41.098Z,41.93
2018-07-02T21:05:11.020Z,42.46
2018-07-02T21:07:40.972Z,43.39
2018-07-02T21:10:11.145Z,43.78
2018-07-02T21:12:40.937Z,43.67
2018-07-02T21:15:10.771Z,44.00
2018-07-02T21:17:40.643Z,44.02
2018-07-02T21:20:10.581Z,44.09
2018-07-02T21:22:40.325Z,44.24
2018-07-02T21:25:10.161Z,44.30
2018-07-02T21:27:40.513Z,45.43
2018-07-02T21:30:10.916Z,45.35
2018-07-02T21:32:40.758Z,45.36
2018-07-02T21:35:11.024Z,45.64
2018-07-02T21:37:40.967Z,44.19
2018-07-02T21:40:10.844Z,43.38
2018-07-02T21:42:40.719Z,43.65
2018-07-02T21:45:10.707Z,43.62
2018-07-02T21:47:40.542Z,42.99
2018-07-02T21:50:10.718Z,43.15
2018-07-02T21:52:41.240Z,43.81
2018-07-02T21:55:11.212Z,43.15
2018-07-02T21:57:42.519Z,43.80
2018-07-02T22:00:14.339Z,43.77
2018-07-02T22:02:44.216Z,44.25
2018-07-02T22:05:13.997Z,44.59
2018-07-02T22:07:43.857Z,44.08
2018-07-02T22:10:13.866Z,45.35
2018-07-02T22:12:43.625Z,45.34
2018-07-02T22:15:13.348Z,46.19
2018-07-02T22:17:42.800Z,46.83
2018-07-02T22:20:12.603Z,46.98
2018-07-02T22:22:42.403Z,48.46
2018-07-02T22:25:12.115Z,47.65
2018-07-02T22:27:41.843Z,48.43
2018-07-02T22:30:11.562Z,48.20
2018-07-02T22:32:41.260Z,48.33
2018-07-02T22:35:11.782Z,48.94
2018-07-02T22:37:41.639Z,49.68
2018-07-02T22:40:11.348Z,49.83
2018-07-02T22:42:41.052Z,50.68
2018-07-02T22:45:10.774Z,50.41
2018-07-02T22:47:40.359Z,50.88
2018-07-02T22:50:10.052Z,51.62
2018-07-02T22:52:39.845Z,51.61
2018-07-02T22:55:09.684Z,50.51
2018-07-02T22:57:39.416Z,51.33
2018-07-02T23:00:10.521Z,52.58
2018-07-02T23:02:40.284Z,53.16
2018-07-02T23:05:10.388Z,53.72
2018-07-02T23:07:40.047Z,53.62
2018-07-02T23:10:09.658Z,54.03
2018-07-02T23:12:39.234Z,53.83
2018-07-02T23:15:08.935Z,53.77
2018-07-02T23:17:39.224Z,54.79
2018-07-02T23:20:08.884Z,53.56
2018-07-02T23:22:59.840Z,55.42
2018-07-02T23:25:29.890Z,55.45
2018-07-02T23:28:00.603Z,55.50
2018-07-02T23:30:31.519Z,56.03
2018-07-02T23:33:02.000Z,56.30
2018-07-02T23:35:31.600Z,56.69
2018-07-02T23:38:01.308Z,55.67
2018-07-02T23:40:31.063Z,55.82
2018-07-02T23:43:00.602Z,56.42
2018-07-02T23:45:30.253Z,57.33
2018-07-02T23:47:59.866Z,57.00
2018-07-02T23:50:29.668Z,56.91
2018-07-02T23:52:59.301Z,57.36
2018-07-02T23:55:29.445Z,57.04
2018-07-02T23:57:59.239Z,57.35
